createdAt,value
2018-09-05T00:00:52.103Z,21.09
2018-09-05T00:01:52.083Z,21.09
2018-09-05T00:02:52.081Z,21.07
2018-09-05T00:03:52.094Z,21.06
2018-09-05T00:04:52.080Z,21.02
2018-09-05T00:05:52.069Z,21.02
2018-09-05T00:06:52.107Z,21.01
2018-09-05T00:07:52.121Z,20.98
2018-09-05T00:08:52.469Z,20.95
2018-09-05T00:09:52.201Z,20.96
2018-09-05T00:10:52.109Z,20.95
2018-09-05T00:11:52.101Z,20.95
2018-09-05T00:12:52.134Z,20.95
2018-09-05T00:13:52.135Z,20.89
2018-09-05T00:14:52.149Z,20.89
2018-09-05T00:15:52.213Z,20.89
2018-09-05T00:16:52.105Z,20.88
2018-09-05T00:17:52.140Z,20.85
2018-09-05T00:18:52.118Z,20.84
2018-09-05T00:19:52.184Z,20.85
2018-09-05T00:20:52.490Z,20.79
2018-09-05T00:21:52.262Z,20.77
2018-09-05T00:22:52.188Z,20.78
2018-09-05T00:23:52.122Z,20.75
2018-09-05T00:24:52.077Z,20.74
2018-09-05T00:25:52.272Z,20.72
2018-09-05T00:26:52.101Z,20.72
2018-09-05T00:27:52.098Z,20.74
2018-09-05T00:28:52.164Z,20.7
2018-09-05T00:29:52.124Z,20.72
2018-09-05T00:30:52.130Z,20.72
2018-09-05T00:31:52.559Z,20.67
2018-09-05T00:32:52.152Z,20.67
2018-09-05T00:33:52.118Z,20.67
2018-09-05T00:34:52.093Z,20.67
2018-09-05T00:35:52.191Z,20.62
2018-09-05T00:36:52.088Z,20.64
2018-09-05T00:37:52.112Z,20.6
2018-09-05T00:38:52.262Z,20.6
2018-09-05T00:39:52.190Z,20.61
2018-09-05T00:40:52.103Z,20.6
2018-09-05T00:41:52.112Z,20.57
2018-09-05T00:42:52.161Z,20.55
2018-09-05T00:43:52.282Z,20.54
2018-09-05T00:44:52.195Z,20.52
2018-09-05T00:45:52.100Z,20.5
2018-09-05T00:46:52.239Z,20.46
2018-09-05T00:47:52.206Z,20.46
2018-09-05T00:48:52.316Z,20.48
2018-09-05T00:49:52.118Z,20.44
2018-09-05T00:50:52.175Z,20.4
2018-09-05T00:51:52.128Z,20.4
2018-09-05T00:52:52.121Z,20.37
2018-09-05T00:53:52.215Z,20.4
2018-09-05T00:54:52.248Z,20.37
2018-09-05T00:55:52.130Z,20.37
2018-09-05T00:56:52.160Z,20.36
2018-09-05T00:57:52.312Z,20.32
2018-09-05T00:58:52.421Z,20.32
2018-09-05T00:59:52.149Z,20.29
2018-09-05T01:00:52.312Z,20.29
2018-09-05T01:01:52.150Z,20.27
2018-09-05T01:02:52.133Z,20.3
2018-09-05T01:03:52.183Z,20.27
2018-09-05T01:04:52.140Z,20.27
2018-09-05T01:05:52.189Z,20.29
2018-09-05T01:06:52.134Z,20.3
2018-09-05T01:07:52.180Z,20.32
2018-09-05T01:08:52.300Z,20.32
2018-09-05T01:09:52.293Z,20.3
2018-09-05T01:10:52.262Z,20.29
2018-09-05T01:11:52.213Z,20.32
2018-09-05T01:12:52.136Z,20.33
2018-09-05T01:13:52.115Z,20.32
2018-09-05T01:14:52.132Z,20.32
2018-09-05T01:15:52.141Z,20.3
2018-09-05T01:16:52.127Z,20.33
2018-09-05T01:17:52.290Z,20.33
2018-09-05T01:18:52.186Z,20.32
2018-09-05T01:19:52.222Z,20.3
2018-09-05T01:20:52.174Z,20.3
2018-09-05T01:21:52.150Z,20.26
2018-09-05T01:22:52.501Z,20.26
2018-09-05T01:23:52.227Z,20.29
2018-09-05T01:24:52.152Z,20.24
2018-09-05T01:25:52.143Z,20.2
2018-09-05T01:26:52.138Z,20.17
2018-09-05T01:27:52.151Z,20.16
2018-09-05T01:28:52.156Z,20.17
2018-09-05T01:29:52.162Z,20.17
2018-09-05T01:30:52.149Z,20.17
2018-09-05T01:31:52.146Z,20.16
2018-09-05T01:32:52.218Z,20.15
2018-09-05T01:33:52.461Z,20.12
2018-09-05T01:34:52.195Z,20.12
2018-09-05T01:35:52.314Z,20.09
2018-09-05T01:36:52.150Z,20.08
2018-09-05T01:37:52.267Z,20.09
2018-09-05T01:38:52.144Z,20.05
2018-09-05T01:39:52.127Z,20.05
2018-09-05T01:40:52.178Z,20.02
2018-09-05T01:41:52.524Z,20.01
2018-09-05T01:42:52.187Z,20.04
2018-09-05T01:43:52.138Z,20.05
2018-09-05T01:44:52.174Z,20.02
2018-09-05T01:45:52.195Z,20.01
2018-09-05T01:46:52.211Z,19.99
2018-09-05T01:47:52.149Z,20.01
2018-09-05T01:48:52.242Z,19.99
2018-09-05T01:49:52.189Z,20.02
2018-09-05T01:50:52.155Z,20.01
2018-09-05T01:51:52.203Z,20.01
2018-09-05T01:52:52.222Z,19.99
2018-09-05T01:53:52.197Z,19.96
2018-09-05T01:54:52.192Z,19.96
2018-09-05T01:55:52.203Z,19.95
2018-09-05T01:56:52.252Z,19.96
2018-09-05T01:57:52.560Z,19.98
2018-09-05T01:58:52.266Z,19.96
2018-09-05T01:59:52.245Z,19.95
2018-09-05T02:00:52.553Z,19.95
2018-09-05T02:01:52.166Z,19.93
2018-09-05T02:02:52.304Z,19.92
2018-09-05T02:03:52.393Z,19.89
2018-09-05T02:04:52.197Z,19.88
2018-09-05T02:05:52.348Z,19.88
2018-09-05T02:06:52.184Z,19.86
2018-09-05T02:07:52.185Z,19.85
2018-09-05T02:08:52.157Z,19.82
2018-09-05T02:09:52.329Z,19.81
2018-09-05T02:10:52.212Z,19.78
2018-09-05T02:11:52.576Z,19.78
2018-09-05T02:12:52.241Z,19.77
2018-09-05T02:13:52.466Z,19.79
2018-09-05T02:14:52.161Z,19.77
2018-09-05T02:15:52.179Z,19.77
2018-09-05T02:16:52.289Z,19.74
2018-09-05T02:17:52.173Z,19.75
2018-09-05T02:18:52.195Z,19.74
2018-09-05T02:19:52.208Z,19.75
2018-09-05T02:20:52.214Z,19.77
2018-09-05T02:21:52.172Z,19.75
2018-09-05T02:22:52.251Z,19.75
2018-09-05T02:23:52.204Z,19.77
2018-09-05T02:24:52.185Z,19.72
2018-09-05T02:25:52.199Z,19.74
2018-09-05T02:26:52.824Z,19.74
2018-09-05T02:27:52.176Z,19.72
2018-09-05T02:28:52.363Z,19.7
2018-09-05T02:29:52.230Z,19.7
2018-09-05T02:30:52.215Z,19.7
2018-09-05T02:31:52.381Z,19.7
2018-09-05T02:32:52.262Z,19.7
2018-09-05T02:33:52.186Z,19.68
2018-09-05T02:34:52.181Z,19.65
2018-09-05T02:35:52.179Z,19.67
2018-09-05T02:36:52.261Z,19.64
2018-09-05T02:37:52.184Z,19.64
2018-09-05T02:38:52.187Z,19.62
2018-09-05T02:39:52.196Z,19.61
2018-09-05T02:40:52.818Z,19.6
2018-09-05T02:41:52.187Z,19.6
2018-09-05T02:42:52.198Z,19.6
2018-09-05T02:43:52.250Z,19.6
2018-09-05T02:44:52.290Z,19.58
2018-09-05T02:45:52.307Z,19.57
2018-09-05T02:46:52.203Z,19.57
2018-09-05T02:47:52.217Z,19.53
2018-09-05T02:48:52.197Z,19.56
2018-09-05T02:49:52.222Z,19.53
2018-09-05T02:50:52.183Z,19.53
2018-09-05T02:51:52.204Z,19.51
2018-09-05T02:52:52.219Z,19.53
2018-09-05T02:53:52.483Z,19.5
2018-09-05T02:54:52.411Z,19.47
2018-09-05T02:55:52.361Z,19.47
2018-09-05T02:56:52.244Z,19.44
2018-09-05T02:57:52.361Z,19.44
2018-09-05T02:58:52.255Z,19.44
2018-09-05T02:59:52.210Z,19.47
2018-09-05T03:00:52.215Z,19.47
2018-09-05T03:01:52.595Z,19.47
2018-09-05T03:02:52.424Z,19.46
2018-09-05T03:03:52.272Z,19.47
2018-09-05T03:04:52.386Z,19.49
2018-09-05T03:05:52.338Z,19.47
2018-09-05T03:06:52.284Z,19.43
2018-09-05T03:07:52.294Z,19.46
2018-09-05T03:08:52.361Z,19.43
2018-09-05T03:09:52.647Z,19.39
2018-09-05T03:10:52.269Z,19.37
2018-09-05T03:11:52.223Z,19.36
2018-09-05T03:12:52.236Z,19.34
2018-09-05T03:13:52.233Z,19.34
2018-09-05T03:14:52.377Z,19.32
2018-09-05T03:15:52.237Z,19.25
2018-09-05T03:16:52.240Z,19.25
2018-09-05T03:17:56.286Z,19.23
2018-09-05T03:18:53.741Z,19.23
2018-09-05T03:19:52.228Z,19.26
2018-09-05T03:20:52.238Z,19.26
2018-09-05T03:21:52.320Z,19.25
2018-09-05T03:22:52.262Z,19.26
2018-09-05T03:23:52.479Z,19.26
2018-09-05T03:24:52.211Z,19.25
2018-09-05T03:25:52.215Z,19.26
2018-09-05T03:26:52.212Z,19.25
2018-09-05T03:27:52.357Z,19.23
2018-09-05T03:28:52.303Z,19.22
2018-09-05T03:29:52.653Z,19.17
2018-09-05T03:30:52.305Z,19.22
2018-09-05T03:31:52.287Z,19.19
2018-09-05T03:32:53.038Z,19.21
2018-09-05T03:33:52.245Z,19.19
2018-09-05T03:34:52.574Z,19.17
2018-09-05T03:35:52.250Z,19.17
2018-09-05T03:36:52.384Z,19.15
2018-09-05T03:37:52.234Z,19.12
2018-09-05T03:38:52.329Z,19.1
2018-09-05T03:39:52.239Z,19.1
2018-09-05T03:40:52.297Z,19.05
2018-09-05T03:41:52.498Z,19.03
2018-09-05T03:42:52.412Z,19.03
2018-09-05T03:43:52.252Z,18.99
2018-09-05T03:44:52.217Z,18.99
2018-09-05T03:45:52.525Z,18.99
2018-09-05T03:46:52.357Z,18.98
2018-09-05T03:47:52.411Z,18.98
2018-09-05T03:48:52.243Z,18.98
2018-09-05T03:49:52.772Z,18.97
2018-09-05T03:50:52.296Z,18.99
2018-09-05T03:51:52.389Z,18.95
2018-09-05T03:52:52.707Z,18.92
2018-09-05T03:53:52.263Z,18.94
2018-09-05T03:54:52.244Z,18.91
2018-09-05T03:55:52.293Z,18.94
2018-09-05T03:56:52.315Z,18.88
2018-09-05T03:57:52.264Z,18.91
2018-09-05T03:58:52.314Z,18.88
2018-09-05T03:59:52.300Z,18.89
2018-09-05T04:00:52.238Z,18.91
2018-09-05T04:01:52.311Z,18.91
2018-09-05T04:02:52.540Z,18.91
2018-09-05T04:03:52.382Z,18.91
2018-09-05T04:04:52.294Z,18.91
2018-09-05T04:05:52.313Z,18.92
2018-09-05T04:06:52.479Z,18.94
2018-09-05T04:07:52.254Z,18.94
2018-09-05T04:08:52.287Z,18.94
2018-09-05T04:09:52.245Z,18.91
2018-09-05T04:10:52.290Z,18.89
2018-09-05T04:11:52.404Z,18.89
2018-09-05T04:12:52.450Z,18.88
2018-09-05T04:13:52.267Z,18.87
2018-09-05T04:14:52.273Z,18.87
2018-09-05T04:15:52.231Z,18.85
2018-09-05T04:16:52.457Z,18.85
2018-09-05T04:17:53.261Z,18.87
2018-09-05T04:18:52.405Z,18.84
2018-09-05T04:19:52.298Z,18.84
2018-09-05T04:20:52.275Z,18.84
2018-09-05T04:21:52.526Z,18.82
2018-09-05T04:22:52.400Z,18.84
2018-09-05T04:23:52.464Z,18.81
2018-09-05T04:24:52.377Z,18.81
2018-09-05T04:25:52.278Z,18.78
2018-09-05T04:26:52.289Z,18.77
2018-09-05T04:27:52.387Z,18.72
2018-09-05T04:28:52.344Z,18.71
2018-09-05T04:29:52.504Z,18.71
2018-09-05T04:30:52.269Z,18.68
2018-09-05T04:31:52.257Z,18.71
2018-09-05T04:32:52.294Z,18.7
2018-09-05T04:33:52.287Z,18.68
2018-09-05T04:34:52.277Z,18.7
2018-09-05T04:35:52.282Z,18.67
2018-09-05T04:36:52.266Z,18.7
2018-09-05T04:37:52.315Z,18.66
2018-09-05T04:38:52.269Z,18.68
2018-09-05T04:39:52.303Z,18.67
2018-09-05T04:40:52.273Z,18.67
2018-09-05T04:41:52.308Z,18.66
2018-09-05T04:42:52.274Z,18.63
2018-09-05T04:43:52.279Z,18.63
2018-09-05T04:44:52.254Z,18.61
2018-09-05T04:45:52.273Z,18.59
2018-09-05T04:46:52.270Z,18.6
2018-09-05T04:47:52.871Z,18.6
2018-09-05T04:48:52.342Z,18.6
2018-09-05T04:49:52.269Z,18.59
2018-09-05T04:50:52.261Z,18.59
2018-09-05T04:51:52.368Z,18.57
2018-09-05T04:52:52.292Z,18.59
2018-09-05T04:53:52.616Z,18.59
2018-09-05T04:54:52.404Z,18.53
2018-09-05T04:55:52.464Z,18.52
2018-09-05T04:56:52.275Z,18.52
2018-09-05T04:57:52.305Z,18.5
2018-09-05T04:58:52.696Z,18.5
2018-09-05T04:59:52.513Z,18.49
2018-09-05T05:00:59.499Z,18.5
2018-09-05T05:01:52.394Z,18.47
2018-09-05T05:02:52.448Z,18.47
2018-09-05T05:03:52.366Z,18.5
2018-09-05T05:04:52.350Z,18.47
2018-09-05T05:05:52.751Z,18.49
2018-09-05T05:06:52.283Z,18.47
2018-09-05T05:07:52.394Z,18.44
2018-09-05T05:08:52.426Z,18.46
2018-09-05T05:09:52.347Z,18.44
2018-09-05T05:10:52.342Z,18.46
2018-09-05T05:11:52.491Z,18.46
2018-09-05T05:12:52.385Z,18.44
2018-09-05T05:13:52.525Z,18.39
2018-09-05T05:14:52.521Z,18.37
2018-09-05T05:15:52.304Z,18.4
2018-09-05T05:16:52.345Z,18.36
2018-09-05T05:17:52.365Z,18.35
2018-09-05T05:18:53.128Z,18.35
2018-09-05T05:19:52.376Z,18.33
2018-09-05T05:20:52.374Z,18.33
2018-09-05T05:21:52.295Z,18.35
2018-09-05T05:22:52.404Z,18.33
2018-09-05T05:23:52.302Z,18.39
2018-09-05T05:24:52.341Z,18.4
2018-09-05T05:25:52.458Z,18.4
2018-09-05T05:26:52.337Z,18.4
2018-09-05T05:27:52.696Z,18.4
2018-09-05T05:28:52.832Z,18.43
2018-09-05T05:29:52.356Z,18.42
2018-09-05T05:30:52.281Z,18.37
2018-09-05T05:31:52.355Z,18.39
2018-09-05T05:32:52.460Z,18.39
2018-09-05T05:33:52.459Z,18.39
2018-09-05T05:34:52.350Z,18.4
2018-09-05T05:35:52.494Z,18.4
2018-09-05T05:36:52.296Z,18.44
2018-09-05T05:37:52.374Z,18.43
2018-09-05T05:38:52.885Z,18.43
2018-09-05T05:39:52.426Z,18.44
2018-09-05T05:40:52.340Z,18.43
2018-09-05T05:41:52.506Z,18.4
2018-09-05T05:42:52.320Z,18.42
2018-09-05T05:43:52.433Z,18.4
2018-09-05T05:44:52.372Z,18.4
2018-09-05T05:45:52.392Z,18.4
2018-09-05T05:46:52.616Z,18.42
2018-09-05T05:47:52.351Z,18.42
2018-09-05T05:48:52.299Z,18.4
2018-09-05T05:49:52.303Z,18.4
2018-09-05T05:50:52.351Z,18.4
2018-09-05T05:51:52.326Z,18.42
2018-09-05T05:52:52.330Z,18.43
2018-09-05T05:53:52.748Z,18.42
2018-09-05T05:54:52.384Z,18.43
2018-09-05T05:55:52.493Z,18.43
2018-09-05T05:56:52.340Z,18.43
2018-09-05T05:57:52.312Z,18.43
2018-09-05T05:58:52.552Z,18.44
2018-09-05T05:59:52.428Z,18.44
2018-09-05T06:00:52.742Z,18.49
2018-09-05T06:01:52.408Z,18.49
2018-09-05T06:02:52.345Z,18.46
2018-09-05T06:03:52.346Z,18.49
2018-09-05T06:04:52.337Z,18.5
2018-09-05T06:05:52.692Z,18.47
2018-09-05T06:06:52.440Z,18.49
2018-09-05T06:07:52.343Z,18.49
2018-09-05T06:08:52.394Z,18.47
2018-09-05T06:09:52.386Z,18.49
2018-09-05T06:10:52.357Z,18.5
2018-09-05T06:11:52.907Z,18.53
2018-09-05T06:12:52.688Z,18.56
2018-09-05T06:13:52.363Z,18.56
2018-09-05T06:14:52.427Z,18.57
2018-09-05T06:15:52.359Z,18.56
2018-09-05T06:16:52.757Z,18.56
2018-09-05T06:17:52.647Z,18.59
2018-09-05T06:18:53.099Z,18.6
2018-09-05T06:19:52.462Z,18.66
2018-09-05T06:20:52.401Z,18.66
2018-09-05T06:21:52.417Z,18.67
2018-09-05T06:22:52.454Z,18.7
2018-09-05T06:23:52.471Z,18.7
2018-09-05T06:24:52.346Z,18.72
2018-09-05T06:25:52.404Z,18.75
2018-09-05T06:26:52.378Z,18.78
2018-09-05T06:27:52.870Z,18.82
2018-09-05T06:28:52.540Z,18.85
2018-09-05T06:29:52.393Z,18.88
2018-09-05T06:30:52.920Z,18.92
2018-09-05T06:31:52.390Z,18.98
2018-09-05T06:32:52.375Z,19.01
2018-09-05T06:33:52.548Z,19.06
2018-09-05T06:34:52.489Z,19.05
2018-09-05T06:35:52.344Z,19.09
2018-09-05T06:36:52.476Z,19.1
2018-09-05T06:37:52.327Z,19.15
2018-09-05T06:38:52.470Z,19.17
2018-09-05T06:39:52.389Z,19.19
2018-09-05T06:40:52.543Z,19.21
2018-09-05T06:41:52.372Z,19.23
2018-09-05T06:42:52.547Z,19.27
2018-09-05T06:43:52.618Z,19.29
2018-09-05T06:44:52.571Z,19.29
2018-09-05T06:45:52.392Z,19.33
2018-09-05T06:46:52.452Z,19.32
2018-09-05T06:47:52.437Z,19.33
2018-09-05T06:48:52.376Z,19.37
2018-09-05T06:49:52.366Z,19.39
2018-09-05T06:50:52.420Z,19.39
2018-09-05T06:51:52.373Z,19.42
2018-09-05T06:52:52.402Z,19.42
2018-09-05T06:53:52.695Z,19.44
2018-09-05T06:54:52.554Z,19.46
2018-09-05T06:55:52.447Z,19.49
2018-09-05T06:56:52.568Z,19.49
2018-09-05T06:57:52.359Z,19.53
2018-09-05T06:58:52.555Z,19.57
2018-09-05T06:59:52.643Z,19.57
2018-09-05T07:00:52.548Z,19.6
2018-09-05T07:01:52.377Z,19.62
2018-09-05T07:02:52.610Z,19.64
2018-09-05T07:03:53.059Z,19.68
2018-09-05T07:04:52.594Z,19.68
2018-09-05T07:05:52.364Z,19.7
2018-09-05T07:06:52.408Z,19.74
2018-09-05T07:07:52.437Z,19.75
2018-09-05T07:08:52.407Z,19.77
2018-09-05T07:09:52.465Z,19.79
2018-09-05T07:10:52.732Z,19.82
2018-09-05T07:11:52.412Z,19.84
2018-09-05T07:12:52.360Z,19.85
2018-09-05T07:13:52.479Z,19.88
2018-09-05T07:14:52.374Z,19.89
2018-09-05T07:15:52.399Z,19.93
2018-09-05T07:16:52.468Z,19.91
2018-09-05T07:17:52.374Z,19.95
2018-09-05T07:18:52.424Z,19.95
2018-09-05T07:19:52.440Z,19.96
2018-09-05T07:20:52.367Z,20.01
2018-09-05T07:21:52.588Z,20.01
2018-09-05T07:22:52.465Z,20.06
2018-09-05T07:23:52.416Z,20.06
2018-09-05T07:24:52.565Z,20.08
2018-09-05T07:25:52.379Z,20.11
2018-09-05T07:26:52.743Z,20.13
2018-09-05T07:27:52.404Z,20.16
2018-09-05T07:28:52.585Z,20.16
2018-09-05T07:29:52.390Z,20.19
2018-09-05T07:30:52.888Z,20.22
2018-09-05T07:31:52.405Z,20.24
2018-09-05T07:32:52.459Z,20.27
2018-09-05T07:33:52.484Z,20.33
2018-09-05T07:34:52.468Z,20.34
2018-09-05T07:35:52.446Z,20.39
2018-09-05T07:36:52.447Z,20.41
2018-09-05T07:37:52.426Z,20.47
2018-09-05T07:38:52.390Z,20.48
2018-09-05T07:39:52.388Z,20.52
2018-09-05T07:40:52.479Z,20.57
2018-09-05T07:41:52.516Z,20.61
2018-09-05T07:42:52.485Z,20.61
2018-09-05T07:43:52.782Z,20.65
2018-09-05T07:44:52.420Z,20.67
2018-09-05T07:45:52.646Z,20.7
2018-09-05T07:46:52.401Z,20.71
2018-09-05T07:47:52.426Z,20.75
2018-09-05T07:48:52.520Z,20.78
2018-09-05T07:49:52.404Z,20.79
2018-09-05T07:50:52.536Z,20.84
2018-09-05T07:51:52.403Z,20.84
2018-09-05T07:52:52.411Z,20.87
2018-09-05T07:53:52.381Z,20.88
2018-09-05T07:54:52.651Z,20.89
2018-09-05T07:55:52.392Z,20.92
2018-09-05T07:56:52.454Z,20.94
2018-09-05T07:57:52.484Z,20.95
2018-09-05T07:58:52.435Z,20.98
2018-09-05T07:59:52.421Z,21.01
2018-09-05T08:00:52.419Z,20.98
2018-09-05T08:01:52.814Z,21.02
2018-09-05T08:02:52.649Z,21.02
2018-09-05T08:03:52.462Z,21.01
2018-09-05T08:04:52.447Z,20.96
2018-09-05T08:05:52.430Z,20.98
2018-09-05T08:06:52.578Z,20.96
2018-09-05T08:07:52.810Z,20.95
2018-09-05T08:08:52.466Z,20.89
2018-09-05T08:09:52.467Z,20.91
2018-09-05T08:10:52.514Z,20.94
2018-09-05T08:11:53.337Z,20.98
2018-09-05T08:12:52.495Z,20.99
2018-09-05T08:13:52.615Z,21.02
2018-09-05T08:14:52.409Z,20.99
2018-09-05T08:15:52.669Z,20.99
2018-09-05T08:16:52.548Z,20.99
2018-09-05T08:17:52.400Z,21.05
2018-09-05T08:18:52.538Z,21.07
2018-09-05T08:19:52.527Z,21.13
2018-09-05T08:20:52.579Z,21.17
2018-09-05T08:21:52.618Z,21.19
2018-09-05T08:22:52.566Z,21.19
2018-09-05T08:23:52.595Z,21.22
2018-09-05T08:24:52.836Z,21.26
2018-09-05T08:25:52.678Z,21.3
2018-09-05T08:26:52.430Z,21.36
2018-09-05T08:27:52.477Z,21.43
2018-09-05T08:28:52.712Z,21.47
2018-09-05T08:29:52.559Z,21.54
2018-09-05T08:30:52.511Z,21.56
2018-09-05T08:31:52.407Z,21.62
2018-09-05T08:32:52.424Z,21.68
2018-09-05T08:33:52.431Z,21.74
2018-09-05T08:34:53.141Z,21.78
2018-09-05T08:35:54.206Z,21.82
2018-09-05T08:36:53.964Z,21.85
2018-09-05T08:37:52.931Z,21.88
2018-09-05T08:38:52.942Z,21.88
2018-09-05T08:39:52.447Z,21.88
2018-09-05T08:40:52.499Z,21.86
2018-09-05T08:41:52.845Z,21.91
2018-09-05T08:42:52.680Z,21.96
2018-09-05T08:43:53.070Z,22.05
2018-09-05T08:44:53.720Z,22.08
2018-09-05T08:45:53.717Z,22.11
2018-09-05T08:46:52.810Z,22.13
2018-09-05T08:47:52.832Z,22.15
2018-09-05T08:48:52.520Z,22.16
2018-09-05T08:49:52.469Z,22.23
2018-09-05T08:50:52.450Z,22.26
2018-09-05T08:51:52.522Z,22.33
2018-09-05T08:52:52.772Z,22.41
2018-09-05T08:53:52.452Z,22.46
2018-09-05T08:54:52.447Z,22.44
2018-09-05T08:55:52.639Z,22.48
2018-09-05T08:56:52.472Z,22.47
2018-09-05T08:57:52.496Z,22.44
2018-09-05T08:58:52.775Z,22.5
2018-09-05T08:59:52.649Z,22.51
2018-09-05T09:00:52.527Z,22.5
2018-09-05T09:01:52.541Z,22.47
2018-09-05T09:02:52.615Z,22.44
2018-09-05T09:03:52.452Z,22.44
2018-09-05T09:04:52.622Z,22.5
2018-09-05T09:05:52.485Z,22.46
2018-09-05T09:06:52.671Z,22.53
2018-09-05T09:07:52.665Z,22.6
2018-09-05T09:08:52.502Z,22.64
2018-09-05T09:09:52.563Z,22.71
2018-09-05T09:10:52.579Z,22.79
2018-09-05T09:11:52.471Z,22.85
2018-09-05T09:12:52.490Z,22.92
2018-09-05T09:13:52.488Z,22.95
2018-09-05T09:14:52.700Z,23.02
2018-09-05T09:15:52.488Z,23.06
2018-09-05T09:16:52.613Z,23.09
2018-09-05T09:17:52.692Z,23.15
2018-09-05T09:18:52.594Z,23.2
2018-09-05T09:19:52.651Z,23.2
2018-09-05T09:20:52.517Z,23.25
2018-09-05T09:21:52.571Z,23.25
2018-09-05T09:22:52.500Z,23.25
2018-09-05T09:23:52.501Z,23.26
2018-09-05T09:24:52.461Z,23.25
2018-09-05T09:25:52.530Z,23.27
2018-09-05T09:26:52.751Z,23.26
2018-09-05T09:27:52.613Z,23.2
2018-09-05T09:28:52.460Z,23.23
2018-09-05T09:29:52.510Z,23.25
2018-09-05T09:30:52.824Z,23.22
2018-09-05T09:31:52.579Z,23.23
2018-09-05T09:32:52.578Z,23.27
2018-09-05T09:33:52.740Z,23.33
2018-09-05T09:34:52.498Z,23.39
2018-09-05T09:35:52.481Z,23.46
2018-09-05T09:36:52.635Z,23.5
2018-09-05T09:37:52.699Z,23.54
2018-09-05T09:38:52.699Z,23.58
2018-09-05T09:39:52.809Z,23.62
2018-09-05T09:40:52.488Z,23.6
2018-09-05T09:41:52.490Z,23.6
2018-09-05T09:42:52.527Z,23.61
2018-09-05T09:43:52.483Z,23.62
2018-09-05T09:44:52.691Z,23.61
2018-09-05T09:45:52.565Z,23.61
2018-09-05T09:46:52.514Z,23.6
2018-09-05T09:47:52.550Z,23.62
2018-09-05T09:48:52.498Z,23.71
2018-09-05T09:49:52.504Z,23.73
2018-09-05T09:50:52.509Z,23.75
2018-09-05T09:51:52.474Z,23.8
2018-09-05T09:52:52.508Z,23.87
2018-09-05T09:53:52.516Z,23.92
2018-09-05T09:54:52.499Z,23.99
2018-09-05T09:55:52.499Z,23.99
2018-09-05T09:56:52.880Z,24.02
2018-09-05T09:57:52.546Z,24.05
2018-09-05T09:58:52.489Z,24.06
2018-09-05T09:59:52.506Z,24.13
2018-09-05T10:00:52.547Z,24.1
2018-09-05T10:01:52.891Z,24.06
2018-09-05T10:02:52.509Z,24.06
2018-09-05T10:03:53.103Z,24.05
2018-09-05T10:04:52.725Z,24.06
2018-09-05T10:05:52.515Z,24.09
2018-09-05T10:06:52.736Z,24.09
2018-09-05T10:07:52.544Z,24.15
2018-09-05T10:08:52.648Z,24.12
2018-09-05T10:09:53.332Z,24.13
2018-09-05T10:10:52.532Z,24.15
2018-09-05T10:11:52.756Z,24.21
2018-09-05T10:12:52.734Z,24.33
2018-09-05T10:13:52.606Z,24.4
2018-09-05T10:14:52.763Z,24.55
2018-09-05T10:15:52.564Z,24.61
2018-09-05T10:16:52.662Z,24.71
2018-09-05T10:17:52.524Z,24.78
2018-09-05T10:18:52.687Z,24.86
2018-09-05T10:19:52.527Z,24.89
2018-09-05T10:20:52.815Z,24.95
2018-09-05T10:21:52.641Z,24.92
2018-09-05T10:22:52.509Z,24.92
2018-09-05T10:23:52.517Z,24.92
2018-09-05T10:24:52.721Z,24.94
2018-09-05T10:25:52.575Z,24.98
2018-09-05T10:26:52.640Z,24.97
2018-09-05T10:27:52.724Z,25.01
2018-09-05T10:28:52.510Z,25.05
2018-09-05T10:29:52.638Z,25.06
2018-09-05T10:30:52.567Z,25.09
2018-09-05T10:31:52.917Z,25.15
2018-09-05T10:32:52.769Z,25.2
2018-09-05T10:33:52.522Z,25.23
2018-09-05T10:34:52.631Z,25.27
2018-09-05T10:35:53.054Z,25.26
2018-09-05T10:36:52.824Z,25.37
2018-09-05T10:37:52.637Z,25.33
2018-09-05T10:38:52.937Z,25.29
2018-09-05T10:39:52.720Z,25.29
2018-09-05T10:40:52.522Z,25.3
2018-09-05T10:41:53.080Z,25.2
2018-09-05T10:42:52.528Z,25.17
2018-09-05T10:43:52.536Z,25.17
2018-09-05T10:44:52.531Z,25.26
2018-09-05T10:45:52.888Z,25.29
2018-09-05T10:46:52.768Z,25.4
2018-09-05T10:47:52.733Z,25.46
2018-09-05T10:48:52.621Z,25.51
2018-09-05T10:49:52.536Z,25.6
2018-09-05T10:50:52.568Z,25.61
2018-09-05T10:51:53.021Z,25.6
2018-09-05T10:52:52.700Z,25.64
2018-09-05T10:53:52.791Z,25.68
2018-09-05T10:54:52.605Z,25.74
2018-09-05T10:55:52.588Z,25.71
2018-09-05T10:56:52.645Z,25.72
2018-09-05T10:57:52.973Z,25.78
2018-09-05T10:58:52.527Z,25.81
2018-09-05T10:59:52.531Z,25.74
2018-09-05T11:00:52.755Z,25.81
2018-09-05T11:01:52.544Z,25.82
2018-09-05T11:02:52.596Z,25.92
2018-09-05T11:03:52.596Z,25.98
2018-09-05T11:04:52.615Z,26.06
2018-09-05T11:05:52.687Z,26.15
2018-09-05T11:06:52.560Z,26.17
2018-09-05T11:07:52.597Z,26.26
2018-09-05T11:08:52.637Z,26.34
2018-09-05T11:09:52.787Z,26.32
2018-09-05T11:10:52.813Z,26.36
2018-09-05T11:11:52.737Z,26.36
2018-09-05T11:12:52.595Z,26.43
2018-09-05T11:13:52.569Z,26.44
2018-09-05T11:14:53.199Z,26.47
2018-09-05T11:15:52.572Z,26.55
2018-09-05T11:16:52.586Z,26.58
2018-09-05T11:17:52.546Z,26.6
2018-09-05T11:18:52.581Z,26.62
2018-09-05T11:19:52.891Z,26.65
2018-09-05T11:20:52.666Z,26.67
2018-09-05T11:21:52.582Z,26.67
2018-09-05T11:22:52.551Z,26.71
2018-09-05T11:23:52.583Z,26.72
2018-09-05T11:24:52.549Z,26.72
2018-09-05T11:25:52.577Z,26.47
2018-09-05T11:26:52.555Z,26.4
2018-09-05T11:27:52.583Z,26.36
2018-09-05T11:28:52.627Z,26.3
2018-09-05T11:29:52.612Z,26.37
2018-09-05T11:30:52.587Z,26.42
2018-09-05T11:31:52.563Z,26.44
2018-09-05T11:32:52.600Z,26.5
2018-09-05T11:33:52.570Z,26.46
2018-09-05T11:34:52.636Z,26.48
2018-09-05T11:35:52.581Z,26.51
2018-09-05T11:36:52.733Z,26.61
2018-09-05T11:37:52.611Z,26.77
2018-09-05T11:38:52.788Z,26.85
2018-09-05T11:39:52.621Z,26.87
2018-09-05T11:40:52.582Z,26.85
2018-09-05T11:41:52.692Z,26.89
2018-09-05T11:42:52.700Z,26.88
2018-09-05T11:43:52.603Z,26.94
2018-09-05T11:44:52.710Z,26.96
2018-09-05T11:45:52.685Z,26.98
2018-09-05T11:46:53.072Z,27.05
2018-09-05T11:47:52.655Z,27.02
2018-09-05T11:48:52.731Z,27.02
2018-09-05T11:49:52.652Z,27.09
2018-09-05T11:50:52.642Z,27.06
2018-09-05T11:51:52.597Z,27.09
2018-09-05T11:52:52.658Z,27.16
2018-09-05T11:53:52.607Z,27.1
2018-09-05T11:54:52.593Z,27.05
2018-09-05T11:55:52.832Z,27.09
2018-09-05T11:56:52.976Z,27.16
2018-09-05T11:57:52.569Z,27.22
2018-09-05T11:58:53.308Z,27.27
2018-09-05T11:59:52.592Z,27.29
2018-09-05T12:00:52.619Z,27.34
2018-09-05T12:01:52.666Z,27.39
2018-09-05T12:02:52.680Z,27.4
2018-09-05T12:03:52.738Z,27.41
2018-09-05T12:04:52.908Z,27.4
2018-09-05T12:05:52.952Z,27.46
2018-09-05T12:06:52.589Z,27.51
2018-09-05T12:07:52.668Z,27.57
2018-09-05T12:08:52.590Z,27.61
2018-09-05T12:09:52.600Z,27.61
2018-09-05T12:10:52.656Z,27.67
2018-09-05T12:11:53.286Z,27.7
2018-09-05T12:12:53.039Z,27.7
2018-09-05T12:13:53.019Z,27.7
2018-09-05T12:14:52.696Z,27.77
2018-09-05T12:15:52.667Z,27.81
2018-09-05T12:16:52.602Z,27.82
2018-09-05T12:17:52.644Z,27.81
2018-09-05T12:18:52.650Z,27.78
2018-09-05T12:19:52.704Z,27.53
2018-09-05T12:20:52.727Z,27.5
2018-09-05T12:21:52.710Z,27.57
2018-09-05T12:22:52.799Z,27.64
2018-09-05T12:23:52.667Z,27.72
2018-09-05T12:24:52.712Z,27.79
2018-09-05T12:25:52.594Z,27.85
2018-09-05T12:26:52.589Z,27.91
2018-09-05T12:27:52.704Z,27.91
2018-09-05T12:28:52.707Z,27.95
2018-09-05T12:29:52.652Z,27.98
2018-09-05T12:30:52.827Z,27.95
2018-09-05T12:31:52.891Z,27.99
2018-09-05T12:32:52.836Z,28.04
2018-09-05T12:33:52.640Z,28.05
2018-09-05T12:34:52.722Z,28.09
2018-09-05T12:35:52.729Z,28.12
2018-09-05T12:36:52.626Z,28.15
2018-09-05T12:37:52.612Z,28.16
2018-09-05T12:38:52.632Z,28.2
2018-09-05T12:39:52.622Z,28.24
2018-09-05T12:40:52.928Z,28.2
2018-09-05T12:41:52.610Z,28.11
2018-09-05T12:42:52.646Z,28.15
2018-09-05T12:43:52.761Z,28.22
2018-09-05T12:44:52.643Z,28.27
2018-09-05T12:45:52.641Z,28.33
2018-09-05T12:46:52.645Z,28.3
2018-09-05T12:47:52.625Z,28.34
2018-09-05T12:48:52.660Z,28.37
2018-09-05T12:49:52.677Z,28.39
2018-09-05T12:50:52.623Z,28.36
2018-09-05T12:51:52.625Z,28.39
2018-09-05T12:52:53.155Z,28.4
2018-09-05T12:53:52.672Z,28.44
2018-09-05T12:54:52.746Z,28.46
2018-09-05T12:55:52.636Z,28.41